Time;durP1;ratioP1;P1;durP2;ratioP2;P2;SDS_P1;SDS_P2;PMS_P1;PMS_P2;Temp;Humidity;BMP_temperature;BMP_pressure;BME280_temperature;BME280_humidity;BME280_pressure;Samples;Min_cycle;Max_cycle;Signal;HPM_P1;HPM_P2
2022/05/25 00:02:07;;;;;;;0.10;0.10;;;;;;;23.14;44.58;100856.38;5126658;27;20043;-31
2022/05/25 00:04:34;;;;;;;0.10;0.10;;;;;;;23.14;44.48;100859.16;5127790;27;20423;-31
2022/05/25 00:07:00;;;;;;;0.10;0.10;;;;;;;23.13;44.50;100861.13;5125162;27;20087;-32
2022/05/25 00:09:25;;;;;;;0.10;0.10;;;;;;;23.13;44.44;100865.84;5125735;27;20054;-32
2022/05/25 00:11:52;;;;;;;0.10;0.10;;;;;;;23.13;44.57;100866.69;5125344;27;20047;-31
2022/05/25 00:14:18;;;;;;;0.10;0.10;;;;;;;23.13;44.58;100869.44;5124297;27;20089;-32
2022/05/25 00:16:44;;;;;;;0.10;0.10;;;;;;;23.13;44.57;100869.44;5119391;27;20100;-32
2022/05/25 00:21:56;;;;;;;0.10;0.10;;;;;;;23.11;44.46;100871.72;5118410;27;20459;-31
2022/05/25 00:24:21;;;;;;;0.10;0.10;;;;;;;23.12;44.66;100873.38;5127249;27;20077;-30
2022/05/25 00:26:47;;;;;;;0.10;0.10;;;;;;;23.11;44.68;100871.72;5125663;27;20051;-31
2022/05/25 00:29:14;;;;;;;0.10;0.10;;;;;;;23.11;44.66;100870.91;5127847;27;20043;-31
2022/05/25 00:31:40;;;;;;;0.10;0.10;;;;;;;23.10;44.66;100866.47;5127343;27;20039;-31
2022/05/25 00:34:07;;;;;;;0.08;0.08;;;;;;;23.10;44.71;100878.44;5112360;27;20279;-31
2022/05/25 00:36:32;;;;;;;0.00;0.00;;;;;;;23.10;44.63;100878.44;5122605;27;20082;-31
2022/05/25 00:38:58;;;;;;;0.00;0.00;;;;;;;23.10;44.66;100880.34;5125512;27;20042;-30
2022/05/25 00:41:28;;;;;;;0.10;0.10;;;;;;;23.10;44.74;100883.13;5130389;27;20039;-31
2022/05/25 00:43:54;;;;;;;0.10;0.10;;;;;;;23.09;44.67;100884.28;5105244;27;20106;-32
2022/05/25 00:46:21;;;;;;;0.10;0.10;;;;;;;23.10;44.68;100883.13;5121163;27;20130;-31
2022/05/25 00:48:51;;;;;;;0.10;0.10;;;;;;;23.08;44.71;100889.00;5126594;27;20478;-31
2022/05/25 00:51:22;;;;;;;0.10;0.10;;;;;;;23.09;44.69;100887.88;5127445;27;20126;-31
2022/05/25 00:53:53;;;;;;;0.10;0.10;;;;;;;23.08;44.77;100885.41;5107575;27;20082;-31
2022/05/25 00:56:21;;;;;;;0.10;0.10;;;;;;;23.07;44.66;100881.81;5130287;27;20513;-31
2022/05/25 00:58:53;;;;;;;0.00;0.00;;;;;;;23.07;44.62;100895.69;5125734;27;20505;-31
2022/05/25 01:01:20;;;;;;;0.10;0.10;;;;;;;23.08;44.64;100896.53;5121625;27;20121;-30
2022/05/25 01:03:46;;;;;;;0.10;0.10;;;;;;;23.08;44.65;100894.56;5127171;27;20047;-31
2022/05/25 01:06:18;;;;;;;0.10;0.10;;;;;;;23.08;44.84;100899.28;5124176;27;20095;-32
2022/05/25 01:09:07;;;;;;;0.10;0.10;;;;;;;23.07;44.72;100903.22;5120943;27;20075;-31
2022/05/25 01:11:39;;;;;;;0.10;0.10;;;;;;;23.06;44.73;100896.84;5125785;27;20088;-31
2022/05/25 01:14:18;;;;;;;0.10;0.10;;;;;;;23.06;44.74;100898.75;5130447;27;20070;-31
2022/05/25 01:19:49;;;;;;;0.10;0.10;;;;;;;23.05;44.87;100897.94;5175706;27;20127;-30
2022/05/25 01:22:52;;;;;;;0.10;0.10;;;;;;;23.04;44.76;100897.13;5156510;27;20050;-28
2022/05/25 01:29:01;;;;;;;0.10;0.10;;;;;;;23.04;44.82;100908.25;5158255;27;20526;-29
2022/05/25 01:31:35;;;;;;;0.00;0.00;;;;;;;23.04;44.90;100907.41;5133888;27;20078;-29
2022/05/25 01:34:08;;;;;;;0.10;0.10;;;;;;;23.04;44.86;100912.97;5158046;27;20463;-29
2022/05/25 01:36:49;;;;;;;0.10;0.10;;;;;;;23.03;44.68;100914.09;5159367;27;20146;-30
2022/05/25 01:39:22;;;;;;;0.10;0.10;;;;;;;23.03;44.75;100903.81;5158364;27;20081;-28
2022/05/25 01:41:54;;;;;;;0.10;0.10;;;;;;;23.02;44.81;100924.41;5153404;27;20453;-29
2022/05/25 01:44:24;;;;;;;0.10;0.10;;;;;;;23.03;44.76;100916.88;5123431;27;20109;-30
2022/05/25 01:46:54;;;;;;;0.10;0.10;;;;;;;23.02;44.92;100918.03;5142783;27;20039;-29
2022/05/25 01:49:22;;;;;;;0.10;0.10;;;;;;;23.02;44.89;100916.06;5136730;27;20524;-29
2022/05/25 01:51:50;;;;;;;0.10;0.10;;;;;;;23.02;44.72;100920.81;5140860;27;20074;-29
2022/05/25 01:54:19;;;;;;;0.10;0.10;;;;;;;23.01;44.89;100922.75;5143638;27;20070;-29
2022/05/25 01:56:48;;;;;;;0.10;0.10;;;;;;;23.02;44.83;100926.34;5138918;27;20497;-30
2022/05/25 01:59:15;;;;;;;0.10;0.10;;;;;;;23.01;44.88;100924.69;5143687;27;20142;-30
2022/05/25 02:01:50;;;;;;;0.10;0.10;;;;;;;23.01;44.79;100924.69;5146710;27;20062;-29
2022/05/25 02:04:23;;;;;;;0.10;0.10;;;;;;;23.00;44.77;100929.41;5143355;27;20050;-29
2022/05/25 02:07:00;;;;;;;0.10;0.10;;;;;;;23.00;44.92;100934.97;5140817;27;20042;-29
2022/05/25 02:09:50;;;;;;;0.10;0.10;;;;;;;22.99;44.92;100933.34;5137551;27;20559;-30
2022/05/25 02:15:06;;;;;;;0.10;0.10;;;;;;;23.00;44.91;100929.41;5163492;27;20210;-29
2022/05/25 02:18:05;;;;;;;0.10;0.10;;;;;;;23.00;44.90;100932.19;5163458;27;20121;-28
2022/05/25 02:20:55;;;;;;;0.10;0.10;;;;;;;22.99;44.85;100933.34;5150632;27;20077;-28
2022/05/25 02:23:35;;;;;;;0.10;0.10;;;;;;;22.99;44.93;100938.88;5163881;27;20082;-29
2022/05/25 02:26:06;;;;;;;0.10;0.10;;;;;;;22.98;44.92;100933.66;5162309;27;20217;-29
2022/05/25 02:28:39;;;;;;;0.10;0.10;;;;;;;22.98;44.94;100944.75;5162174;27;20561;-31
2022/05/25 02:31:07;;;;;;;0.10;0.10;;;;;;;22.98;45.05;100944.75;5163517;27;20074;-28
2022/05/25 02:33:37;;;;;;;0.10;0.10;;;;;;;22.97;44.89;100949.50;5164964;27;20129;-28
2022/05/25 02:36:04;;;;;;;0.03;0.03;;;;;;;22.98;44.89;100953.09;5143855;27;20050;-29
2022/05/25 02:38:30;;;;;;;0.10;0.10;;;;;;;22.97;44.93;100949.50;5143035;27;20452;-30
2022/05/25 02:41:25;;;;;;;0.10;0.10;;;;;;;22.98;44.95;100947.53;5162567;27;20075;-28
2022/05/25 02:43:51;;;;;;;0.10;0.10;;;;;;;22.97;44.96;100952.28;5148910;27;20088;-30
2022/05/25 02:46:16;;;;;;;0.05;0.05;;;;;;;22.96;44.88;100950.59;5159681;27;20039;-28
2022/05/25 02:48:42;;;;;;;0.10;0.10;;;;;;;22.95;44.93;100954.53;5158949;27;20038;-29
2022/05/25 02:51:08;;;;;;;0.10;0.10;;;;;;;22.96;44.88;100961.72;5160581;27;20066;-29
2022/05/25 02:53:36;;;;;;;0.10;0.10;;;;;;;22.96;45.02;100963.66;5163720;27;21203;-30
2022/05/25 02:56:02;;;;;;;0.10;0.10;;;;;;;22.96;44.98;100960.88;5163529;27;20042;-32
2022/05/25 02:58:28;;;;;;;0.10;0.10;;;;;;;22.96;44.94;100961.72;5145643;27;20159;-30
2022/05/25 03:00:54;;;;;;;0.10;0.10;;;;;;;22.95;44.91;100965.63;5160860;27;20103;-30
2022/05/25 03:03:20;;;;;;;0.10;0.10;;;;;;;22.95;44.95;100965.63;5164204;27;20054;-29
2022/05/25 03:05:46;;;;;;;0.10;0.10;;;;;;;22.95;44.94;100973.97;5163725;27;20493;-30
2022/05/25 03:08:12;;;;;;;0.10;0.10;;;;;;;22.94;44.99;100977.88;5157398;27;20545;-28
2022/05/25 03:10:38;;;;;;;0.22;0.20;;;;;;;22.94;45.03;100977.06;5162415;27;20079;-30
2022/05/25 03:13:05;;;;;;;0.10;0.10;;;;;;;22.94;44.95;100975.09;5162813;27;20070;-29
2022/05/25 03:15:31;;;;;;;0.10;0.10;;;;;;;22.93;44.97;100978.19;5162576;27;20078;-28
2022/05/25 03:17:57;;;;;;;0.10;0.10;;;;;;;22.94;45.07;100979.84;5142148;27;20060;-29
2022/05/25 03:20:22;;;;;;;0.10;0.10;;;;;;;22.93;44.95;100984.56;5165192;27;20046;-29
2022/05/25 03:22:48;;;;;;;0.10;0.10;;;;;;;22.93;45.07;100986.53;5160592;27;20481;-28
2022/05/25 03:25:14;;;;;;;0.10;0.10;;;;;;;22.92;44.92;100987.63;5156668;27;20388;-29
2022/05/25 03:27:40;;;;;;;0.10;0.10;;;;;;;22.93;44.94;100986.53;5150948;27;20047;-29
2022/05/25 03:30:08;;;;;;;0.10;0.10;;;;;;;22.92;44.95;100988.44;5150121;27;20066;-29
2022/05/25 03:32:34;;;;;;;0.10;0.10;;;;;;;22.93;45.05;100995.66;5146850;27;20594;-29
2022/05/25 03:35:00;;;;;;;0.10;0.10;;;;;;;22.92;45.05;100994.00;5150209;27;20116;-29
2022/05/25 03:37:26;;;;;;;0.10;0.10;;;;;;;22.92;45.03;100990.41;5148887;27;20046;-28
2022/05/25 03:39:52;;;;;;;0.10;0.10;;;;;;;22.92;44.97;100996.78;5148619;27;20034;-28
2022/05/25 03:42:19;;;;;;;0.10;0.10;;;;;;;22.92;45.05;100993.19;5133481;27;20043;-29
2022/05/25 03:44:45;;;;;;;0.10;0.10;;;;;;;22.92;45.01;100998.72;5124510;28;20410;-30
2022/05/25 03:47:11;;;;;;;0.10;0.10;;;;;;;22.91;44.97;101006.25;5129118;28;20049;-29
2022/05/25 03:49:36;;;;;;;0.10;0.10;;;;;;;22.91;45.08;101005.44;5127821;28;20493;-29
2022/05/25 03:52:04;;;;;;;0.10;0.10;;;;;;;22.91;45.00;101010.97;5126929;28;20057;-29
2022/05/25 03:54:30;;;;;;;0.10;0.10;;;;;;;22.90;45.06;101010.16;5107094;28;20595;-29
2022/05/25 03:56:56;;;;;;;0.10;0.10;;;;;;;22.90;45.01;101015.72;5128592;28;20172;-29
2022/05/25 03:59:22;;;;;;;0.10;0.10;;;;;;;22.90;45.07;101017.66;5127386;28;20198;-29
2022/05/25 04:01:48;;;;;;;0.10;0.10;;;;;;;22.89;44.98;101016.81;5126810;28;20052;-29
2022/05/25 04:04:13;;;;;;;0.10;0.10;;;;;;;22.89;45.08;101019.59;5128473;28;20054;-28
2022/05/25 04:06:39;;;;;;;0.10;0.10;;;;;;;22.90;44.99;101020.44;5128024;28;20386;-29
2022/05/25 04:09:05;;;;;;;0.10;0.10;;;;;;;22.90;45.02;101028.78;5128773;27;20084;-29
2022/05/25 04:11:32;;;;;;;0.10;0.10;;;;;;;22.89;45.08;101024.31;5127455;28;20081;-29
2022/05/25 04:13:59;;;;;;;0.10;0.10;;;;;;;22.89;45.02;101027.94;5126737;28;20210;-30
2022/05/25 04:16:25;;;;;;;0.10;0.10;;;;;;;22.88;45.10;101029.03;5127750;28;20067;-28
2022/05/25 04:18:51;;;;;;;0.10;0.10;;;;;;;22.89;45.01;101025.16;5127727;27;20456;-29
2022/05/25 04:21:17;;;;;;;0.10;0.10;;;;;;;22.88;44.99;101025.44;5125597;28;20122;-29
2022/05/25 04:23:43;;;;;;;0.10;0.10;;;;;;;22.88;45.11;101030.97;5127370;28;20039;-29
2022/05/25 04:26:09;;;;;;;0.10;0.10;;;;;;;22.87;45.02;101034.91;5126328;28;20039;-29
2022/05/25 04:28:34;;;;;;;0.10;0.10;;;;;;;22.88;45.06;101039.31;5123164;28;20039;-29
2022/05/25 04:31:01;;;;;;;0.10;0.10;;;;;;;22.86;45.13;101028.53;5127545;28;20040;-29
2022/05/25 04:33:29;;;;;;;0.10;0.10;;;;;;;22.86;45.12;101036.84;5128348;28;20062;-30
2022/05/25 04:35:55;;;;;;;0.10;0.10;;;;;;;22.86;45.07;101039.63;5127018;27;20047;-30
2022/05/25 04:38:21;;;;;;;0.10;0.10;;;;;;;22.85;45.16;101035.22;5126454;28;20130;-31
2022/05/25 04:40:47;;;;;;;0.10;0.10;;;;;;;22.86;45.26;101038.81;5126951;28;20053;-29
2022/05/25 04:43:15;;;;;;;0.10;0.10;;;;;;;22.84;45.13;101047.44;5108715;28;20075;-28
2022/05/25 04:45:42;;;;;;;0.10;0.10;;;;;;;22.85;45.10;101048.28;5110795;28;20043;-29
2022/05/25 04:48:08;;;;;;;0.10;0.10;;;;;;;22.85;45.12;101051.88;5124632;28;20064;-31
2022/05/25 04:50:36;;;;;;;0.10;0.10;;;;;;;22.85;45.17;101051.06;5108400;28;20446;-30
2022/05/25 04:53:03;;;;;;;0.10;0.10;;;;;;;22.83;45.13;101058.84;5109590;28;20054;-29
2022/05/25 04:58:25;;;;;;;0.10;0.10;;;;;;;22.84;45.20;101060.47;5112358;28;20036;-30
2022/05/25 05:00:51;;;;;;;0.10;0.10;;;;;;;22.83;45.18;101067.16;5124379;28;20051;-30
2022/05/25 05:03:17;;;;;;;0.10;0.10;;;;;;;22.82;45.04;101066.34;5123133;28;20039;-29
2022/05/25 05:05:43;;;;;;;0.10;0.10;;;;;;;22.83;45.06;101065.22;5103216;28;20081;-30
2022/05/25 05:08:09;;;;;;;0.10;0.10;;;;;;;22.82;45.05;101071.91;5109471;28;20421;-29
2022/05/25 05:10:35;;;;;;;0.10;0.10;;;;;;;22.83;45.05;101067.16;5122887;28;20039;-29
2022/05/25 05:13:08;;;;;;;0.10;0.10;;;;;;;22.82;45.11;101071.09;5125666;28;20409;-29
2022/05/25 05:15:36;;;;;;;0.10;0.10;;;;;;;22.81;45.08;101073.03;5122662;28;20401;-31
2022/05/25 05:18:02;;;;;;;;;;;;;;;22.82;45.08;101071.09;5105779;28;21204;-28
2022/05/25 05:20:28;;;;;;;0.10;0.10;;;;;;;22.81;45.18;101072.22;5127671;27;20630;-28
2022/05/25 05:22:54;;;;;;;0.00;0.00;;;;;;;22.81;45.21;101072.22;5106302;28;21199;-29
2022/05/25 05:25:20;;;;;;;0.10;0.10;;;;;;;22.80;45.20;101063.06;5122678;28;20092;-29
2022/05/25 05:27:45;;;;;;;0.10;0.10;;;;;;;22.81;45.07;101075.81;5107290;28;20440;-29
2022/05/25 05:30:15;;;;;;;0.10;0.10;;;;;;;22.80;45.15;101076.94;5120379;28;20039;-29
2022/05/25 05:32:40;;;;;;;0.10;0.10;;;;;;;22.79;45.08;101073.31;5123257;28;20078;-29
2022/05/25 05:35:06;;;;;;;0.10;0.10;;;;;;;22.80;45.18;101076.94;5126526;28;20047;-29
2022/05/25 05:37:37;;;;;;;0.10;0.10;;;;;;;22.79;44.93;101073.31;5123926;28;20409;-30
2022/05/25 05:40:06;;;;;;;0.10;0.10;;;;;;;22.81;45.01;101080.53;5122277;28;20112;-31
2022/05/25 05:42:32;;;;;;;0.10;0.10;;;;;;;22.79;45.10;101078.88;5123241;27;20129;-32
2022/05/25 05:45:02;;;;;;;0.10;0.10;;;;;;;22.79;45.04;101078.88;5121409;28;20439;-32
2022/05/25 05:47:32;;;;;;;0.10;0.10;;;;;;;22.79;45.06;101080.81;5121540;27;20742;-32
2022/05/25 05:49:58;;;;;;;0.10;0.10;;;;;;;22.78;44.95;101079.19;5103237;28;20540;-32
2022/05/25 05:52:25;;;;;;;0.10;0.10;;;;;;;22.79;44.83;101084.44;5112612;28;20047;-32
2022/05/25 05:54:51;;;;;;;0.00;0.00;;;;;;;22.78;44.82;101082.78;5119846;28;20082;-31
2022/05/25 05:57:16;;;;;;;0.10;0.10;;;;;;;22.79;44.91;101083.59;5113113;28;20048;-30
2022/05/25 05:59:42;;;;;;;0.10;0.10;;;;;;;22.78;44.90;101093.88;5113819;28;20137;-30
2022/05/25 06:02:08;;;;;;;0.10;0.10;;;;;;;22.78;44.85;101093.06;5109088;28;20051;-33
2022/05/25 06:04:33;;;;;;;0.10;0.10;;;;;;;22.78;44.74;101095.84;5116568;28;20509;-29
2022/05/25 06:06:59;;;;;;;0.10;0.10;;;;;;;22.78;44.67;101093.88;5117050;27;20044;-31
2022/05/25 06:09:25;;;;;;;0.10;0.10;;;;;;;22.77;44.76;101099.75;5116839;27;20535;-31
2022/05/25 06:11:51;;;;;;;0.10;0.10;;;;;;;22.77;44.83;101097.81;5101433;28;20047;-31
2022/05/25 06:14:16;;;;;;;0.10;0.10;;;;;;;22.78;44.47;101095.84;5120389;28;20162;-31
2022/05/25 06:19:30;;;;;;;0.38;0.10;;;;;;;22.77;44.77;101105.31;5100724;28;21125;-30
2022/05/25 06:22:15;;;;;;;0.10;0.10;;;;;;;22.76;44.75;101098.13;5119130;28;20078;-30
2022/05/25 06:24:44;;;;;;;0.10;0.10;;;;;;;22.75;44.78;101107.53;5113433;28;21031;-30
2022/05/25 06:27:11;;;;;;;0.10;0.10;;;;;;;22.76;45.22;101123.91;5098172;28;20130;-31
2022/05/25 06:29:38;;;;;;;0.00;0.00;;;;;;;22.76;44.74;101114.78;5097236;28;20138;-31
2022/05/25 06:32:05;;;;;;;0.10;0.10;;;;;;;22.75;44.64;101118.66;5117837;28;20326;-30
2022/05/25 06:34:31;;;;;;;0.10;0.10;;;;;;;22.75;44.71;101119.50;5118751;27;20100;-32
2022/05/25 06:36:57;;;;;;;0.10;0.10;;;;;;;22.75;44.55;101122.28;5117410;28;20047;-32
2022/05/25 06:39:22;;;;;;;0.10;0.10;;;;;;;22.74;44.77;101128.94;5116982;28;20066;-32
2022/05/25 06:41:48;;;;;;;0.10;0.10;;;;;;;22.74;44.71;101120.59;5116211;28;20051;-32
2022/05/25 06:44:15;;;;;;;0.10;0.10;;;;;;;22.74;44.60;101117.81;5114008;28;20051;-30
2022/05/25 06:46:41;;;;;;;0.10;0.10;;;;;;;22.75;44.47;101121.44;5111514;28;20322;-31
2022/05/25 06:49:06;;;;;;;0.10;0.10;;;;;;;22.75;44.67;101129.75;5110503;28;20374;-32
2022/05/25 06:51:34;;;;;;;0.10;0.10;;;;;;;22.75;44.59;101113.09;5114248;28;20432;-31
2022/05/25 06:54:06;;;;;;;0.10;0.10;;;;;;;22.75;44.56;101110.31;5113253;28;20147;-32
2022/05/25 06:56:32;;;;;;;0.10;0.10;;;;;;;22.41;41.58;101124.41;5118802;28;20462;-41
2022/05/25 06:58:59;;;;;;;0.10;0.10;;;;;;;22.34;42.04;101123.97;5114064;27;20051;-31
2022/05/25 07:01:25;;;;;;;0.10;0.10;;;;;;;22.56;42.38;101121.44;5111781;28;20327;-33
2022/05/25 07:03:52;;;;;;;0.10;0.10;;;;;;;22.66;42.33;101123.22;5115644;27;20120;-31
2022/05/25 07:06:19;;;;;;;0.10;0.10;;;;;;;22.68;42.55;101127.38;5115848;27;20077;-30
2022/05/25 07:08:45;;;;;;;0.10;0.10;;;;;;;22.71;42.64;101129.56;5111389;28;20466;-33
2022/05/25 07:11:12;;;;;;;0.10;0.10;;;;;;;22.74;42.89;101130.88;5115954;27;20489;-32
2022/05/25 07:13:39;;;;;;;0.10;0.10;;;;;;;22.74;43.01;101128.94;5117400;27;20131;-31
2022/05/25 07:16:09;;;;;;;0.00;0.00;;;;;;;22.76;43.16;101134.22;5101603;28;20293;-32
2022/05/25 07:18:35;;;;;;;0.10;0.10;;;;;;;22.76;43.12;101129.47;5118401;28;20092;-31
2022/05/25 07:21:08;;;;;;;0.10;0.10;;;;;;;22.78;43.29;101131.94;5121299;28;20127;-30
2022/05/25 07:23:36;;;;;;;0.10;0.10;;;;;;;22.78;43.38;101126.38;5118769;28;20058;-31
2022/05/25 07:26:02;;;;;;;0.10;0.10;;;;;;;22.68;42.56;101134.88;5117148;28;20098;-31
2022/05/25 07:28:28;;;;;;;0.10;0.10;;;;;;;22.76;42.67;101134.22;5120798;28;20125;-31
2022/05/25 07:30:58;;;;;;;0.10;0.10;;;;;;;22.81;42.77;101131.34;5106247;28;20069;-32
2022/05/25 07:33:24;;;;;;;0.10;0.10;;;;;;;22.82;42.69;101141.31;5119744;27;20031;-30
2022/05/25 07:35:50;;;;;;;0.10;0.10;;;;;;;22.84;43.10;101147.41;5120994;27;20072;-31
2022/05/25 07:38:16;;;;;;;0.10;0.10;;;;;;;22.86;43.23;101147.09;5120137;28;20462;-32
2022/05/25 07:40:42;;;;;;;0.10;0.10;;;;;;;22.87;43.16;101140.41;5119965;27;20048;-32
2022/05/25 07:43:13;;;;;;;0.10;0.10;;;;;;;22.89;43.15;101154.84;5119138;28;20043;-32
2022/05/25 07:45:39;;;;;;;0.10;0.10;;;;;;;22.87;43.10;101141.25;5117057;27;21653;-33
2022/05/25 07:48:05;;;;;;;0.15;0.15;;;;;;;22.61;42.25;101151.88;5119699;27;20081;-31
2022/05/25 07:50:35;;;;;;;0.10;0.10;;;;;;;22.77;42.44;101147.78;5119775;28;20096;-32
2022/05/25 07:53:01;;;;;;;0.10;0.10;;;;;;;22.85;42.57;101149.06;5118828;27;20043;-32
2022/05/25 07:55:26;;;;;;;0.10;0.10;;;;;;;22.87;42.70;101132.91;5116020;27;20095;-31
2022/05/25 07:57:53;;;;;;;0.10;0.10;;;;;;;22.91;42.78;101155.38;5096962;28;20047;-31
2022/05/25 08:00:24;;;;;;;0.15;0.10;;;;;;;22.93;42.72;101153.16;5120168;28;20126;-33
2022/05/25 08:05:47;;;;;;;0.10;0.10;;;;;;;22.95;42.87;101154.47;5097308;28;20548;-31
2022/05/25 08:08:16;;;;;;;0.10;0.10;;;;;;;22.96;42.94;101156.13;5114630;28;20096;-33
2022/05/25 08:10:45;;;;;;;0.10;0.10;;;;;;;22.98;42.92;101155.84;5112274;27;20147;-32
2022/05/25 08:13:13;;;;;;;0.10;0.10;;;;;;;22.98;42.89;101148.34;5108995;28;20409;-31
2022/05/25 08:15:42;;;;;;;0.10;0.10;;;;;;;23.00;42.82;101168.28;5115393;28;20709;-32
2022/05/25 08:18:10;;;;;;;0.10;0.10;;;;;;;23.01;43.01;101163.56;5113287;28;20047;-31
2022/05/25 08:20:37;;;;;;;0.10;0.10;;;;;;;23.01;43.03;101161.63;5116652;28;20066;-32
2022/05/25 08:23:04;;;;;;;0.10;0.10;;;;;;;23.02;43.03;101165.22;5116636;27;20070;-31
2022/05/25 08:25:30;;;;;;;0.10;0.10;;;;;;;23.04;43.02;101154.63;5108392;28;20116;-32
2022/05/25 08:27:56;;;;;;;0.10;0.10;;;;;;;23.03;42.95;101156.59;5111158;28;20047;-33
2022/05/25 08:30:21;;;;;;;0.10;0.10;;;;;;;23.04;42.98;101158.22;5114261;28;20043;-31
2022/05/25 08:32:47;;;;;;;0.00;0.00;;;;;;;23.05;42.88;101156.28;5117138;28;20043;-31
2022/05/25 08:35:13;;;;;;;0.10;0.10;;;;;;;23.06;42.88;101155.16;5116297;28;20471;-32
2022/05/25 08:37:41;;;;;;;0.00;0.00;;;;;;;23.07;42.89;101156.81;5093129;28;20409;-31
2022/05/25 08:40:09;;;;;;;0.10;0.10;;;;;;;23.08;42.80;101169.56;5091220;27;20057;-32
2022/05/25 08:42:44;;;;;;;0.00;0.00;;;;;;;23.08;42.88;101161.22;5111589;27;20138;-31
2022/05/25 08:45:10;;;;;;;0.10;0.10;;;;;;;23.10;42.91;101158.13;5112775;27;20043;-31
2022/05/25 08:47:43;;;;;;;0.10;0.10;;;;;;;23.10;42.77;101158.13;5110331;27;20561;-33
2022/05/25 08:50:09;;;;;;;0.10;0.10;;;;;;;23.10;42.71;101153.44;5077542;27;20055;-32
2022/05/25 08:52:36;;;;;;;0.10;0.10;;;;;;;23.11;42.77;101157.84;5114957;27;20043;-32
2022/05/25 08:55:04;;;;;;;0.10;0.10;;;;;;;23.11;42.76;101155.09;5109588;27;20333;-35
2022/05/25 08:57:34;;;;;;;0.10;0.10;;;;;;;23.12;42.85;101161.47;5117230;28;20054;-33
2022/05/25 09:00:04;;;;;;;0.10;0.10;;;;;;;23.12;42.73;101158.69;5116936;28;20080;-33
2022/05/25 09:03:09;;;;;;;0.10;0.10;;;;;;;23.11;42.64;101155.09;5077735;28;20048;-31
2022/05/25 09:05:47;;;;;;;0.10;0.10;;;;;;;23.12;42.65;101167.84;5085704;28;20093;-33
2022/05/25 09:08:52;;;;;;;0.10;0.10;;;;;;;23.11;42.61;101166.19;5097508;28;20449;-31
2022/05/25 09:11:21;;;;;;;0.10;0.10;;;;;;;23.12;42.48;101161.47;5106433;28;20128;-30
2022/05/25 09:14:11;;;;;;;0.10;0.10;;;;;;;23.12;42.58;101153.94;5116413;27;20522;-31
2022/05/25 09:16:37;;;;;;;0.10;0.10;;;;;;;23.11;42.46;101160.63;5122938;27;20423;-31
2022/05/25 09:19:08;;;;;;;0.00;0.00;;;;;;;23.12;42.48;101165.06;5122639;27;20059;-31
2022/05/25 09:21:39;;;;;;;0.10;0.10;;;;;;;23.11;42.42;101160.63;5122867;27;20479;-31
2022/05/25 09:24:15;;;;;;;0.08;0.08;;;;;;;23.12;42.51;101159.50;5119753;27;20075;-31
2022/05/25 09:26:42;;;;;;;0.10;0.10;;;;;;;23.10;42.41;101160.91;5119470;27;20184;-33
2022/05/25 09:29:09;;;;;;;0.10;0.10;;;;;;;23.11;42.57;101159.81;5116938;28;20561;-31
2022/05/25 09:31:40;;;;;;;0.10;0.10;;;;;;;23.10;42.50;101159.00;5119221;27;20492;-30
2022/05/25 09:34:08;;;;;;;0.10;0.10;;;;;;;23.11;42.52;101160.63;5117789;28;20185;-32
2022/05/25 09:36:38;;;;;;;;;;;;;;;23.11;42.49;101165.38;5110381;27;20712;-30
2022/05/25 09:39:23;;;;;;;0.10;0.10;;;;;;;23.10;42.60;101172.88;5094586;28;19938;-31
2022/05/25 09:41:54;;;;;;;0.10;0.10;;;;;;;23.09;42.59;101164.84;5114397;28;20142;-31
2022/05/25 09:44:20;;;;;;;0.10;0.10;;;;;;;23.11;42.60;101162.59;5116649;28;20081;-31
2022/05/25 09:46:52;;;;;;;0.10;0.10;;;;;;;23.11;42.65;101165.38;5110308;27;20131;-32
2022/05/25 09:49:30;;;;;;;0.10;0.10;;;;;;;23.09;42.63;101164.84;5119945;28;20134;-31
2022/05/25 09:52:02;;;;;;;0.10;0.10;;;;;;;23.09;42.79;101171.22;5116118;28;20054;-31
2022/05/25 09:54:35;;;;;;;0.10;0.10;;;;;;;23.10;42.71;101166.47;5118936;27;20176;-31
2022/05/25 09:57:13;;;;;;;0.10;0.10;;;;;;;23.09;42.68;101167.59;5116043;28;20089;-31
2022/05/25 09:59:43;;;;;;;0.10;0.10;;;;;;;23.08;42.55;101169.56;5121455;28;20364;-31
2022/05/25 10:02:30;;;;;;;0.10;0.10;;;;;;;23.09;42.58;101175.94;5102514;28;20073;-34
2022/05/25 10:05:07;;;;;;;0.10;0.10;;;;;;;23.08;42.57;101172.34;5108065;28;20047;-31
2022/05/25 10:07:36;;;;;;;0.10;0.10;;;;;;;23.07;42.58;101175.44;5121602;28;20525;-32
2022/05/25 10:10:08;;;;;;;0.10;0.10;;;;;;;23.07;42.52;101173.47;5123018;28;20477;-31
2022/05/25 10:12:41;;;;;;;0.10;0.10;;;;;;;23.07;42.63;101159.59;5121253;28;20458;-31
2022/05/25 10:15:14;;;;;;;0.10;0.10;;;;;;;23.07;42.56;101158.75;5121677;28;20086;-32
2022/05/25 10:17:43;;;;;;;0.10;0.10;;;;;;;23.07;42.67;101165.16;5120271;28;20090;-30
2022/05/25 10:20:26;;;;;;;0.10;0.10;;;;;;;23.07;42.58;101156.00;5097586;28;20050;-34
2022/05/25 10:25:43;;;;;;;0.10;0.10;;;;;;;23.06;42.58;101170.97;5149970;27;20203;-30
2022/05/25 10:28:21;;;;;;;0.10;0.10;;;;;;;23.06;42.49;101168.19;5131085;27;20065;-29
2022/05/25 10:39:59;;;;;;;0.10;0.10;;;;;;;23.04;42.42;101168.50;5156084;27;20197;-29
2022/05/25 10:42:29;;;;;;;0.10;0.10;;;;;;;23.04;42.57;101169.34;5136254;27;20054;-29
2022/05/25 10:45:09;;;;;;;0.00;0.00;;;;;;;23.04;42.63;101158.22;5134350;27;20133;-29
2022/05/25 10:50:51;;;;;;;0.10;0.10;;;;;;;23.03;42.65;101173.25;5086825;27;20260;-32
2022/05/25 10:56:56;;;;;;;0.10;0.10;;;;;;;23.02;42.67;101166.06;5165850;27;20654;-28
2022/05/25 10:59:35;;;;;;;0.00;0.00;;;;;;;23.02;42.57;101168.00;5147172;27;21522;-31
2022/05/25 11:02:39;;;;;;;0.10;0.10;;;;;;;23.02;42.60;101168.81;5145589;27;20063;-31
2022/05/25 11:05:30;;;;;;;0.10;0.10;;;;;;;23.01;42.50;101169.09;5135081;27;20078;-31
2022/05/25 11:08:09;;;;;;;0.10;0.10;;;;;;;23.01;42.64;101172.75;5143637;27;20043;-33
2022/05/25 11:10:44;;;;;;;0.10;0.10;;;;;;;23.01;42.65;101169.97;5145978;27;20126;-30
2022/05/25 11:13:35;;;;;;;0.10;0.10;;;;;;;23.01;42.39;101171.88;5147194;27;20066;-31
2022/05/25 11:21:58;;;;;;;0.10;0.10;;;;;;;23.01;42.46;101183.00;5152569;27;20210;-29
2022/05/25 11:24:48;;;;;;;0.10;0.10;;;;;;;23.00;42.68;101179.41;5127100;27;20054;-34
2022/05/25 11:27:29;;;;;;;0.10;0.10;;;;;;;23.00;42.56;101175.78;5138940;27;20175;-32
2022/05/25 11:30:06;;;;;;;0.10;0.10;;;;;;;23.00;42.54;101175.78;5147256;27;20541;-32
2022/05/25 11:32:53;;;;;;;0.10;0.10;;;;;;;22.99;42.66;101171.38;5115707;27;20129;-32
2022/05/25 11:35:43;;;;;;;0.00;0.00;;;;;;;22.99;42.54;101165.81;5146686;27;20727;-32
2022/05/25 11:38:37;;;;;;;0.10;0.10;;;;;;;22.98;42.52;101167.78;5151634;27;20135;-31
2022/05/25 11:41:15;;;;;;;0.10;0.10;;;;;;;22.76;39.74;101154.47;5134325;27;20122;-33
2022/05/25 11:44:20;;;;;;;0.10;0.10;;;;;;;22.92;40.54;101159.81;5147464;27;20089;-32
2022/05/25 11:46:48;;;;;;;0.10;0.10;;;;;;;22.98;40.83;101153.06;5140195;27;20389;-31
2022/05/25 11:49:58;;;;;;;0.10;0.10;;;;;;;22.98;40.72;101162.22;5150824;27;20051;-50
2022/05/25 11:52:53;;;;;;;0.10;0.10;;;;;;;23.13;38.44;101146.44;5139811;27;20078;-37
2022/05/25 11:55:42;;;;;;;0.10;0.10;;;;;;;23.20;38.09;101158.00;5139155;27;20544;-47
2022/05/25 11:58:47;;;;;;;0.10;0.10;;;;;;;23.17;37.83;101150.25;5141146;27;20180;-38
2022/05/25 12:01:24;;;;;;;0.10;0.10;;;;;;;23.11;38.29;101160.63;5138260;27;20129;-36
2022/05/25 12:04:30;;;;;;;0.10;0.10;;;;;;;22.99;38.23;101165.81;5135581;27;20180;-37
2022/05/25 12:07:08;;;;;;;0.10;0.10;;;;;;;23.02;38.09;101162.44;5143570;27;20571;-38
2022/05/25 12:10:13;;;;;;;0.10;0.10;;;;;;;22.77;38.06;101155.28;5150577;27;20125;-38
2022/05/25 12:12:46;;;;;;;0.13;0.13;;;;;;;22.76;38.32;101151.69;5137428;27;20126;-32
2022/05/25 12:15:33;;;;;;;0.10;0.10;;;;;;;23.05;38.68;101150.72;5133843;27;20085;-42
2022/05/25 12:18:09;;;;;;;0.10;0.10;;;;;;;23.08;37.56;101144.56;5157182;27;20078;-38
2022/05/25 12:20:48;;;;;;;0.00;0.00;;;;;;;22.93;36.60;101150.38;5152498;27;20141;-38
2022/05/25 12:23:19;;;;;;;0.10;0.10;;;;;;;22.79;36.60;101139.97;5153612;27;20159;-38
2022/05/25 12:25:52;;;;;;;0.00;0.00;;;;;;;22.75;36.89;101133.38;5152154;27;20133;-39
2022/05/25 12:28:18;;;;;;;0.10;0.10;;;;;;;22.74;37.77;101137.25;5138412;27;20532;-35
2022/05/25 12:30:46;;;;;;;0.10;0.10;;;;;;;22.74;37.91;101140.03;5148446;27;20055;-39